Time;durP1;ratioP1;P1;durP2;ratioP2;P2;SDS_P1;SDS_P2;PMS_P1;PMS_P2;Temp;Humidity;BMP_temperature;BMP_pressure;BME280_temperature;BME280_humidity;BME280_pressure;Samples;Min_cycle;Max_cycle;Signal;HPM_P1;HPM_P2
2022/10/15 00:01:06;;;;;;;6.17;2.33;;;16.10;87.60;;;;;;4992010;28;20482;-80
2022/10/15 00:03:36;;;;;;;5.20;2.10;;;16.00;87.60;;;;;;4996516;28;20460;-79
2022/10/15 00:06:06;;;;;;;4.33;2.10;;;16.00;87.60;;;;;;5019877;28;21261;-80
2022/10/15 00:08:34;;;;;;;5.30;2.00;;;16.10;87.70;;;;;;5003184;28;20994;-79
2022/10/15 00:11:05;;;;;;;7.73;2.37;;;16.00;87.70;;;;;;5002367;28;20484;-79
2022/10/15 00:13:33;;;;;;;4.83;2.00;;;16.00;87.70;;;;;;5001654;28;20456;-80
2022/10/15 00:16:02;;;;;;;5.33;2.10;;;16.00;87.70;;;;;;5017565;28;20519;-80
2022/10/15 00:18:30;;;;;;;5.00;2.20;;;16.00;87.70;;;;;;5005547;28;20484;-81
2022/10/15 00:20:58;;;;;;;6.30;1.70;;;16.00;87.80;;;;;;5017571;28;20472;-78
2022/10/15 00:23:26;;;;;;;3.77;1.63;;;16.00;87.80;;;;;;5004255;28;20530;-80
2022/10/15 00:26:02;;;;;;;3.60;1.70;;;16.00;87.80;;;;;;5003353;28;20456;-80
2022/10/15 00:28:31;;;;;;;4.60;1.90;;;16.00;87.80;;;;;;5007540;28;20448;-81
2022/10/15 00:31:03;;;;;;;4.13;1.97;;;16.10;87.90;;;;;;5005336;28;20571;-80
2022/10/15 00:33:36;;;;;;;3.80;1.80;;;16.10;87.80;;;;;;4998836;28;20482;-81
2022/10/15 00:36:06;;;;;;;9.20;2.50;;;16.10;87.70;;;;;;5005060;28;20469;-80
2022/10/15 00:38:35;;;;;;;3.47;1.50;;;16.10;87.80;;;;;;5001098;28;20563;-79
2022/10/15 00:41:05;;;;;;;5.37;1.87;;;16.10;87.80;;;;;;5002062;28;20490;-79
2022/10/15 00:43:43;;;;;;;3.90;1.60;;;16.10;87.80;;;;;;5019980;28;20464;-81
2022/10/15 00:46:18;;;;;;;5.50;2.10;;;16.10;87.80;;;;;;5018241;28;20452;-81
2022/10/15 00:48:49;;;;;;;5.30;1.93;;;16.00;87.70;;;;;;5015558;28;22529;-80
2022/10/15 00:51:20;;;;;;;4.10;1.60;;;16.00;87.80;;;;;;5017215;28;20551;-81
2022/10/15 00:53:50;;;;;;;6.13;2.33;;;16.00;87.90;;;;;;4997162;28;20458;-79
2022/10/15 00:56:22;;;;;;;5.67;1.70;;;16.10;88.00;;;;;;5016002;28;20512;-79
2022/10/15 00:58:53;;;;;;;4.57;1.73;;;16.10;88.00;;;;;;5003376;28;20473;-79
2022/10/15 01:01:24;;;;;;;4.93;1.77;;;16.10;87.90;;;;;;4998377;28;20482;-81
2022/10/15 01:03:53;;;;;;;3.60;1.40;;;16.10;87.90;;;;;;5020452;28;20996;-81
2022/10/15 01:06:21;;;;;;;5.50;1.70;;;16.10;87.80;;;;;;5005512;28;21035;-80
2022/10/15 01:08:49;;;;;;;6.20;1.77;;;16.10;87.80;;;;;;4995416;28;20454;-81
2022/10/15 01:11:36;;;;;;;4.50;1.70;;;16.10;87.90;;;;;;5000811;28;20564;-80
2022/10/15 01:14:19;;;;;;;4.00;1.90;;;16.10;87.80;;;;;;5003562;28;20511;-80
2022/10/15 01:16:53;;;;;;;3.43;1.30;;;16.20;87.90;;;;;;5015380;28;20536;-80
2022/10/15 01:19:36;;;;;;;4.70;1.57;;;16.20;87.80;;;;;;5001296;28;20472;-81
2022/10/15 01:22:06;;;;;;;4.97;1.43;;;16.10;87.80;;;;;;4998045;28;20535;-81
2022/10/15 01:24:49;;;;;;;5.10;2.00;;;16.20;87.90;;;;;;5019171;28;20452;-81
2022/10/15 01:27:28;;;;;;;4.40;1.63;;;16.20;87.90;;;;;;4998677;28;21017;-81
2022/10/15 01:30:22;;;;;;;3.50;1.40;;;16.20;87.90;;;;;;5019673;28;20493;-79
2022/10/15 01:33:06;;;;;;;3.50;1.33;;;16.20;87.90;;;;;;5014085;28;21443;-80
2022/10/15 01:35:43;;;;;;;3.67;1.37;;;16.20;87.80;;;;;;4999698;28;20469;-81
2022/10/15 01:38:24;;;;;;;3.03;1.00;;;16.20;87.90;;;;;;5002309;28;20457;-81
2022/10/15 01:40:57;;;;;;;3.80;1.60;;;16.20;87.90;;;;;;5011801;28;20496;-81
2022/10/15 01:43:30;;;;;;;3.83;1.37;;;16.20;88.00;;;;;;4994477;28;20918;-80
2022/10/15 01:46:27;;;;;;;4.10;1.17;;;16.20;88.00;;;;;;5018311;28;20477;-80
2022/10/15 01:49:06;;;;;;;3.87;1.30;;;16.20;87.80;;;;;;4999815;28;21133;-81
2022/10/15 01:51:38;;;;;;;3.57;1.17;;;16.20;87.80;;;;;;5014746;28;21313;-81
2022/10/15 01:54:10;;;;;;;3.97;0.83;;;16.20;87.90;;;;;;5000603;28;20536;-80
2022/10/15 01:56:39;;;;;;;4.10;0.90;;;16.20;87.90;;;;;;4999454;28;20593;-80
2022/10/15 01:59:09;;;;;;;3.40;1.20;;;16.20;88.00;;;;;;5018486;28;20885;-79
2022/10/15 02:01:37;;;;;;;3.00;1.00;;;16.20;87.90;;;;;;5016241;28;20473;-79
2022/10/15 02:04:19;;;;;;;3.20;1.00;;;16.20;88.00;;;;;;4994860;28;20967;-80
2022/10/15 02:06:54;;;;;;;3.23;1.00;;;16.20;88.00;;;;;;5015655;28;20983;-81
2022/10/15 02:09:32;;;;;;;4.10;1.20;;;16.20;88.00;;;;;;5004194;28;20448;-80
2022/10/15 02:12:11;;;;;;;3.70;0.90;;;16.20;88.00;;;;;;5015554;28;20480;-81
2022/10/15 02:14:47;;;;;;;3.57;0.70;;;16.20;88.00;;;;;;5011157;28;20453;-80
2022/10/15 02:17:18;;;;;;;3.83;0.70;;;16.30;88.00;;;;;;5013472;28;21055;-81
2022/10/15 02:19:54;;;;;;;3.80;0.77;;;16.30;87.90;;;;;;5000780;28;20473;-80
2022/10/15 02:22:26;;;;;;;2.97;0.80;;;16.30;87.90;;;;;;5008766;28;20463;-80
2022/10/15 02:25:01;;;;;;;4.97;0.73;;;16.30;87.90;;;;;;5000211;28;20453;-81
2022/10/15 02:27:31;;;;;;;3.33;0.97;;;16.30;87.90;;;;;;4992103;28;20441;-80
2022/10/15 02:30:02;;;;;;;3.83;0.70;;;16.30;87.90;;;;;;5001469;28;20453;-79
2022/10/15 02:32:32;;;;;;;3.17;0.60;;;16.30;87.90;;;;;;4996830;28;20450;-81
2022/10/15 02:35:02;;;;;;;7.20;0.90;;;16.30;87.90;;;;;;4997593;28;20468;-81
2022/10/15 02:37:32;;;;;;;2.70;0.60;;;16.30;87.90;;;;;;5011718;28;20450;-81
2022/10/15 02:40:00;;;;;;;3.57;0.93;;;16.30;87.90;;;;;;5002758;28;20490;-80
2022/10/15 02:42:29;;;;;;;3.00;0.80;;;16.30;87.80;;;;;;5009896;28;21003;-80
2022/10/15 02:44:57;;;;;;;2.90;0.70;;;16.30;87.90;;;;;;5005311;28;20966;-80
2022/10/15 02:47:25;;;;;;;3.97;0.80;;;16.30;87.90;;;;;;4996797;28;20457;-79
2022/10/15 02:49:53;;;;;;;4.33;0.60;;;16.30;87.80;;;;;;4999099;28;20453;-80
2022/10/15 02:52:23;;;;;;;3.00;0.70;;;16.30;87.90;;;;;;4993580;28;20519;-81
2022/10/15 02:54:52;;;;;;;5.53;0.60;;;16.30;87.90;;;;;;5012847;28;20457;-80
2022/10/15 02:57:22;;;;;;;2.80;0.60;;;16.30;87.90;;;;;;5013489;28;21136;-80
2022/10/15 02:59:50;;;;;;;2.60;0.50;;;16.30;87.90;;;;;;5011700;28;20470;-80
2022/10/15 03:02:18;;;;;;;3.00;0.70;;;16.30;87.90;;;;;;4999552;28;20447;-80
2022/10/15 03:04:47;;;;;;;4.30;1.10;;;16.30;87.90;;;;;;5013149;28;20470;-80
2022/10/15 03:07:15;;;;;;;2.80;0.63;;;16.30;88.00;;;;;;5014632;28;20445;-80
2022/10/15 03:09:45;;;;;;;3.03;0.80;;;16.20;88.00;;;;;;4992108;28;20457;-81
2022/10/15 03:12:14;;;;;;;2.80;0.70;;;16.30;88.00;;;;;;5001946;28;20547;-81
2022/10/15 03:14:42;;;;;;;3.30;0.93;;;16.30;88.00;;;;;;5018857;28;20491;-81
2022/10/15 03:17:10;;;;;;;3.73;0.63;;;16.30;88.00;;;;;;5002754;28;20445;-80
2022/10/15 03:19:39;;;;;;;3.40;0.90;;;16.30;88.00;;;;;;5013563;28;20461;-81
2022/10/15 03:22:07;;;;;;;3.83;0.80;;;16.30;88.00;;;;;;5015439;28;20596;-79
2022/10/15 03:24:45;;;;;;;4.87;0.90;;;16.30;88.00;;;;;;5003889;28;20461;-82
2022/10/15 03:27:13;;;;;;;5.80;0.97;;;16.30;88.00;;;;;;4995232;28;20456;-81
2022/10/15 03:29:41;;;;;;;3.40;0.97;;;16.30;88.00;;;;;;5012802;28;20971;-81
2022/10/15 03:32:09;;;;;;;2.80;0.70;;;16.30;88.00;;;;;;4995859;28;20588;-79
2022/10/15 03:34:37;;;;;;;3.00;0.90;;;16.30;88.00;;;;;;4995987;28;20473;-80
2022/10/15 03:37:06;;;;;;;2.90;0.63;;;16.30;88.10;;;;;;4996813;28;20461;-80
2022/10/15 03:39:35;;;;;;;3.30;0.80;;;16.30;88.00;;;;;;4993540;28;20481;-78
2022/10/15 03:42:07;;;;;;;2.60;0.47;;;16.30;88.10;;;;;;4998073;28;20469;-80
2022/10/15 03:44:44;;;;;;;4.40;0.87;;;16.30;88.10;;;;;;5016920;28;20464;-79
2022/10/15 03:47:16;;;;;;;3.17;0.63;;;16.30;88.10;;;;;;4996028;28;20959;-79
2022/10/15 03:49:46;;;;;;;3.00;0.73;;;16.30;88.10;;;;;;4999725;28;20450;-80
2022/10/15 03:52:15;;;;;;;2.83;0.70;;;16.30;88.10;;;;;;5001520;28;21202;-81
2022/10/15 03:54:45;;;;;;;2.93;0.70;;;16.30;88.10;;;;;;5015992;28;20457;-81
2022/10/15 03:57:17;;;;;;;2.80;0.63;;;16.30;88.10;;;;;;5018656;28;21006;-80
2022/10/15 03:59:51;;;;;;;4.00;0.67;;;16.30;88.10;;;;;;5002645;28;21129;-80
2022/10/15 04:02:21;;;;;;;3.00;0.70;;;16.30;88.10;;;;;;5001647;28;20468;-81
2022/10/15 04:04:51;;;;;;;3.93;0.77;;;16.30;88.10;;;;;;4998848;28;20456;-80
2022/10/15 04:07:20;;;;;;;2.67;0.60;;;16.30;88.10;;;;;;5012006;28;20464;-81
2022/10/15 04:09:48;;;;;;;4.90;0.80;;;16.30;88.00;;;;;;5011201;28;21049;-79
2022/10/15 04:12:28;;;;;;;6.13;0.70;;;16.30;88.10;;;;;;5015108;28;21030;-82
2022/10/15 04:14:56;;;;;;;2.83;0.80;;;16.30;88.10;;;;;;5019834;28;20456;-79
2022/10/15 04:17:24;;;;;;;2.60;0.50;;;16.30;88.20;;;;;;5012840;28;20978;-81
2022/10/15 04:19:52;;;;;;;2.63;0.70;;;16.30;88.20;;;;;;4998608;28;20469;-81
2022/10/15 04:22:21;;;;;;;2.80;0.60;;;16.30;88.20;;;;;;5017607;28;20487;-81
2022/10/15 04:24:55;;;;;;;2.80;0.70;;;16.30;88.20;;;;;;5006452;28;20571;-80
2022/10/15 04:27:29;;;;;;;2.87;0.70;;;16.30;88.20;;;;;;5017413;28;20485;-81
2022/10/15 04:30:17;;;;;;;5.83;0.90;;;16.30;88.20;;;;;;4998415;28;20904;-82
2022/10/15 04:32:54;;;;;;;2.60;0.43;;;16.30;88.20;;;;;;4999047;28;21161;-81
2022/10/15 04:35:22;;;;;;;4.33;0.57;;;16.30;88.20;;;;;;5018743;28;20460;-81
2022/10/15 04:38:01;;;;;;;3.00;0.67;;;16.30;88.30;;;;;;5005277;28;20488;-80
2022/10/15 04:40:49;;;;;;;3.23;0.50;;;16.30;88.20;;;;;;5002487;28;20478;-80
2022/10/15 04:43:19;;;;;;;2.87;0.80;;;16.30;88.20;;;;;;5008778;28;20466;-79
2022/10/15 04:45:48;;;;;;;5.90;0.73;;;16.30;88.30;;;;;;5020489;28;20484;-81
2022/10/15 04:48:19;;;;;;;3.67;0.80;;;16.30;88.30;;;;;;4991964;28;20562;-80
2022/10/15 04:50:47;;;;;;;2.80;0.60;;;16.30;88.30;;;;;;5000809;28;21053;-81
2022/10/15 04:53:18;;;;;;;3.20;0.90;;;16.30;88.30;;;;;;5007400;28;20487;-81
2022/10/15 04:55:50;;;;;;;2.80;0.70;;;16.30;88.40;;;;;;5019258;28;21332;-79
2022/10/15 04:58:19;;;;;;;2.87;0.70;;;16.30;88.40;;;;;;4997902;28;20516;-79
2022/10/15 05:00:48;;;;;;;4.20;1.00;;;16.30;88.40;;;;;;5019869;28;20496;-80
2022/10/15 05:03:34;;;;;;;3.00;0.77;;;16.30;88.40;;;;;;4998414;28;20544;-81
2022/10/15 05:06:09;;;;;;;4.13;0.67;;;16.30;88.50;;;;;;5018347;28;20495;-80
2022/10/15 05:08:40;;;;;;;4.17;0.80;;;16.30;88.50;;;;;;5006230;28;21019;-79
2022/10/15 05:11:19;;;;;;;4.43;0.80;;;16.30;88.50;;;;;;5013927;28;20496;-82
2022/10/15 05:13:49;;;;;;;3.50;0.70;;;16.40;88.50;;;;;;4994895;28;20530;-80
2022/10/15 05:16:20;;;;;;;2.90;0.57;;;16.40;88.50;;;;;;5016229;28;20463;-79
2022/10/15 05:18:50;;;;;;;4.40;0.83;;;16.40;88.50;;;;;;5020351;28;20818;-80
2022/10/15 05:21:19;;;;;;;2.70;0.70;;;16.40;88.40;;;;;;4995737;28;20493;-81
2022/10/15 05:23:50;;;;;;;4.30;1.07;;;16.40;88.40;;;;;;5010571;28;20458;-81
2022/10/15 05:26:41;;;;;;;4.13;0.60;;;16.40;88.40;;;;;;4991996;28;20889;-81
2022/10/15 05:29:11;;;;;;;3.40;0.70;;;16.40;88.40;;;;;;5014841;28;20532;-80
2022/10/15 05:31:39;;;;;;;3.03;0.70;;;16.40;88.40;;;;;;4993472;28;20482;-80
2022/10/15 05:34:19;;;;;;;2.97;0.53;;;16.40;88.40;;;;;;5020433;28;20461;-81
2022/10/15 05:36:55;;;;;;;3.80;0.90;;;16.40;88.40;;;;;;5009915;28;20463;-81
2022/10/15 05:39:23;;;;;;;2.80;0.70;;;16.40;88.40;;;;;;4999778;28;20468;-80
2022/10/15 05:41:53;;;;;;;2.83;0.60;;;16.40;88.40;;;;;;4997955;28;20847;-80
2022/10/15 05:44:31;;;;;;;2.63;0.57;;;16.40;88.40;;;;;;5015844;28;20457;-79
2022/10/15 05:46:59;;;;;;;3.10;0.70;;;16.40;88.40;;;;;;5013865;28;21289;-80
2022/10/15 05:49:27;;;;;;;3.73;0.50;;;16.40;88.40;;;;;;5001774;28;21037;-80
2022/10/15 05:52:03;;;;;;;2.80;0.70;;;16.40;88.40;;;;;;5005476;28;20557;-80
2022/10/15 05:54:57;;;;;;;3.33;0.70;;;16.40;88.40;;;;;;4999109;28;20480;-81
2022/10/15 05:57:25;;;;;;;3.83;0.77;;;16.40;88.40;;;;;;5003538;28;20477;-80
2022/10/15 05:59:55;;;;;;;4.40;1.00;;;16.40;88.40;;;;;;4997950;28;20460;-81
2022/10/15 06:02:23;;;;;;;3.30;0.90;;;16.40;88.40;;;;;;5014050;28;20898;-81
2022/10/15 06:04:52;;;;;;;4.53;1.70;;;16.40;88.40;;;;;;5012356;28;20480;-81
2022/10/15 06:07:20;;;;;;;6.70;1.57;;;16.40;88.40;;;;;;5006024;28;20464;-81
2022/10/15 06:09:48;;;;;;;4.10;1.40;;;16.40;88.50;;;;;;5000322;28;20994;-79
2022/10/15 06:12:17;;;;;;;4.07;1.13;;;16.40;88.50;;;;;;4997724;28;20543;-82
2022/10/15 06:14:45;;;;;;;4.73;1.40;;;16.40;88.50;;;;;;5000676;28;20597;-82
2022/10/15 06:17:14;;;;;;;3.53;1.30;;;16.40;88.50;;;;;;5001403;28;20465;-80
2022/10/15 06:19:47;;;;;;;5.67;2.13;;;16.40;88.60;;;;;;5014728;28;21016;-80
2022/10/15 06:22:15;;;;;;;5.63;2.40;;;16.40;88.60;;;;;;4997186;28;20488;-80
2022/10/15 06:24:43;;;;;;;5.30;2.10;;;16.40;88.60;;;;;;4994094;28;20468;-81
2022/10/15 06:27:12;;;;;;;4.67;1.40;;;16.40;88.60;;;;;;5003305;28;20453;-80
2022/10/15 06:29:41;;;;;;;4.47;1.10;;;16.40;88.60;;;;;;5016102;28;20453;-81
2022/10/15 06:32:09;;;;;;;3.10;0.90;;;16.50;88.60;;;;;;5003305;28;20551;-81
2022/10/15 06:34:44;;;;;;;4.03;1.03;;;16.50;88.60;;;;;;5012863;28;20506;-80
2022/10/15 06:37:12;;;;;;;3.90;1.10;;;16.50;88.70;;;;;;4995017;28;20467;-81
2022/10/15 06:39:40;;;;;;;3.17;0.90;;;16.50;88.70;;;;;;4995947;28;20472;-81
2022/10/15 06:42:08;;;;;;;3.30;0.80;;;16.50;88.70;;;;;;5014956;28;20477;-81
2022/10/15 06:44:38;;;;;;;6.13;1.43;;;16.50;88.80;;;;;;5000619;28;20453;-80
2022/10/15 06:47:06;;;;;;;3.53;1.20;;;16.50;88.90;;;;;;4996401;28;20450;-81
2022/10/15 06:49:34;;;;;;;4.10;1.30;;;16.50;88.90;;;;;;4994290;28;20541;-79
2022/10/15 06:52:04;;;;;;;3.70;1.83;;;16.50;89.00;;;;;;5002171;28;21034;-80
2022/10/15 06:54:32;;;;;;;5.17;1.53;;;16.50;89.00;;;;;;4994605;28;20967;-79
2022/10/15 06:57:00;;;;;;;3.70;1.20;;;16.50;89.10;;;;;;5005884;28;20461;-79
2022/10/15 06:59:27;;;;;;;3.90;1.30;;;16.50;89.10;;;;;;5016923;28;20463;-81
2022/10/15 07:01:57;;;;;;;3.50;1.43;;;16.50;89.20;;;;;;4999242;28;20484;-80
2022/10/15 07:04:25;;;;;;;3.53;1.10;;;16.50;89.30;;;;;;4998260;28;20523;-79
2022/10/15 07:06:53;;;;;;;3.20;1.30;;;16.50;89.30;;;;;;5004275;28;20462;-80
2022/10/15 07:09:23;;;;;;;3.40;1.20;;;16.60;89.30;;;;;;5012543;28;20449;-80
2022/10/15 07:11:52;;;;;;;5.30;1.30;;;16.60;89.30;;;;;;5000275;28;20944;-79
2022/10/15 07:14:20;;;;;;;5.20;1.40;;;16.60;89.30;;;;;;4992674;28;20454;-80
2022/10/15 07:16:48;;;;;;;3.83;1.37;;;16.60;89.30;;;;;;5015405;28;20466;-80
2022/10/15 07:19:16;;;;;;;3.53;1.20;;;16.60;89.30;;;;;;4992731;28;20469;-80
2022/10/15 07:21:46;;;;;;;3.33;1.27;;;16.60;89.30;;;;;;4999590;28;20479;-80
2022/10/15 07:24:15;;;;;;;4.10;1.33;;;16.70;89.30;;;;;;5013213;28;20612;-81
2022/10/15 07:26:44;;;;;;;4.87;1.63;;;16.70;89.30;;;;;;4993410;28;20599;-78
2022/10/15 07:29:12;;;;;;;5.30;1.60;;;16.70;89.30;;;;;;4997478;28;20465;-79
2022/10/15 07:31:40;;;;;;;4.40;2.00;;;16.70;89.30;;;;;;4997266;28;20859;-79
2022/10/15 07:34:08;;;;;;;4.43;1.60;;;16.70;89.30;;;;;;4999333;28;20477;-81
2022/10/15 07:36:36;;;;;;;4.00;1.07;;;16.70;89.30;;;;;;4998516;28;20881;-78
2022/10/15 07:39:04;;;;;;;3.87;1.23;;;16.70;89.40;;;;;;4994381;28;20900;-80
2022/10/15 07:41:32;;;;;;;4.83;1.53;;;16.70;89.40;;;;;;4994405;28;20474;-82
2022/10/15 07:44:02;;;;;;;4.60;1.57;;;16.70;89.40;;;;;;5002878;28;21182;-80
2022/10/15 07:46:30;;;;;;;4.20;2.00;;;16.70;89.40;;;;;;5006884;28;20559;-80
2022/10/15 07:48:58;;;;;;;4.00;1.70;;;16.70;89.40;;;;;;5001066;28;21005;-80
2022/10/15 07:51:26;;;;;;;4.20;2.27;;;16.70;89.50;;;;;;5014086;28;20481;-81
2022/10/15 07:53:55;;;;;;;5.77;2.10;;;16.70;89.40;;;;;;5017432;28;20461;-81
2022/10/15 07:56:23;;;;;;;8.70;2.00;;;16.80;89.40;;;;;;5003641;28;21090;-80
2022/10/15 07:58:51;;;;;;;4.10;1.90;;;16.70;89.50;;;;;;5005267;28;20516;-81
2022/10/15 08:01:21;;;;;;;6.10;2.70;;;16.70;89.60;;;;;;5003696;28;20469;-79
2022/10/15 08:03:49;;;;;;;5.70;2.43;;;16.70;89.60;;;;;;5004924;28;20536;-79
2022/10/15 08:06:17;;;;;;;4.13;1.73;;;16.80;89.70;;;;;;5003439;28;20484;-80
2022/10/15 08:08:46;;;;;;;6.30;2.20;;;16.80;89.70;;;;;;5004482;28;20926;-81
2022/10/15 08:11:16;;;;;;;4.20;1.90;;;16.80;89.70;;;;;;5001335;28;20527;-79
2022/10/15 08:13:45;;;;;;;4.00;1.77;;;16.80;89.70;;;;;;5003074;28;20455;-82
2022/10/15 08:16:15;;;;;;;8.13;1.77;;;16.80;89.70;;;;;;4997856;28;20519;-80
2022/10/15 08:18:51;;;;;;;7.40;2.30;;;16.80;89.70;;;;;;5017134;28;21141;-80
2022/10/15 08:21:23;;;;;;;4.13;1.90;;;16.80;89.70;;;;;;5014926;28;20497;-81
2022/10/15 08:23:52;;;;;;;6.60;2.00;;;16.80;89.80;;;;;;4995987;28;20512;-80
2022/10/15 08:26:29;;;;;;;4.60;1.80;;;16.90;89.80;;;;;;5000182;28;20536;-78
2022/10/15 08:28:57;;;;;;;10.93;2.57;;;16.90;89.90;;;;;;5005331;28;20460;-80
2022/10/15 08:31:25;;;;;;;7.37;2.10;;;16.90;89.90;;;;;;5004270;28;20558;-80
2022/10/15 08:33:55;;;;;;;8.70;2.20;;;17.00;89.90;;;;;;5021966;28;20461;-79
2022/10/15 08:36:23;;;;;;;8.80;1.80;;;17.00;89.90;;;;;;4996032;28;20521;-80
2022/10/15 08:38:50;;;;;;;16.13;2.57;;;17.00;90.00;;;;;;4997153;28;20465;-81
2022/10/15 08:41:24;;;;;;;7.33;2.33;;;17.10;90.00;;;;;;5005475;28;20483;-80
2022/10/15 08:43:52;;;;;;;8.67;2.60;;;17.10;90.10;;;;;;5011952;28;20526;-80
2022/10/15 08:46:25;;;;;;;10.20;2.70;;;17.10;90.10;;;;;;5003247;28;20460;-81
2022/10/15 08:48:58;;;;;;;6.57;2.37;;;17.20;90.10;;;;;;4999266;28;20458;-82
2022/10/15 08:51:31;;;;;;;4.10;1.93;;;17.20;90.10;;;;;;5015107;28;20488;-80
2022/10/15 08:54:02;;;;;;;16.30;2.57;;;17.30;90.00;;;;;;4997200;28;20444;-80
2022/10/15 08:56:35;;;;;;;8.90;2.73;;;17.30;90.00;;;;;;4998604;28;20458;-81
2022/10/15 08:59:15;;;;;;;5.97;2.17;;;17.30;90.10;;;;;;5001667;28;20967;-81
2022/10/15 09:01:50;;;;;;;9.07;2.80;;;17.30;90.00;;;;;;4996703;28;20469;-81
2022/10/15 09:04:29;;;;;;;25.97;3.03;;;17.30;90.10;;;;;;5007222;28;20887;-80
2022/10/15 09:07:05;;;;;;;7.23;1.97;;;17.40;90.10;;;;;;5000343;28;20453;-79
2022/10/15 09:09:42;;;;;;;21.07;2.60;;;17.40;90.00;;;;;;4998053;28;20457;-80
2022/10/15 09:12:28;;;;;;;12.47;2.00;;;17.40;90.00;;;;;;5015554;28;20563;-81
2022/10/15 09:14:59;;;;;;;81.63;8.77;;;17.50;89.90;;;;;;4999188;28;20808;-81
2022/10/15 09:17:35;;;;;;;25.50;4.13;;;17.50;89.80;;;;;;5000560;28;20464;-81
2022/10/15 09:20:13;;;;;;;12.20;2.50;;;17.60;89.90;;;;;;4996796;28;20461;-80
2022/10/15 09:22:41;;;;;;;5.47;1.70;;;17.60;90.00;;;;;;5002497;28;20564;-80
2022/10/15 09:25:15;;;;;;;7.33;1.50;;;17.70;89.90;;;;;;5018364;28;20473;-81
2022/10/15 09:27:46;;;;;;;10.90;1.73;;;17.80;89.80;;;;;;5003706;28;20494;-80
2022/10/15 09:30:32;;;;;;;20.53;2.40;;;17.80;89.60;;;;;;5001533;28;20554;-80
2022/10/15 09:33:06;;;;;;;5.23;1.70;;;17.80;89.50;;;;;;5013335;28;20460;-79
2022/10/15 09:35:42;;;;;;;4.00;1.47;;;17.80;89.50;;;;;;5017392;28;20464;-81
2022/10/15 09:38:31;;;;;;;6.13;1.40;;;17.80;89.50;;;;;;4997608;28;20452;-79
2022/10/15 09:41:14;;;;;;;4.50;1.43;;;17.90;89.40;;;;;;4999617;28;20512;-81
2022/10/15 09:43:46;;;;;;;4.10;1.27;;;17.90;89.40;;;;;;5008673;28;20516;-79
2022/10/15 09:46:14;;;;;;;5.03;1.30;;;17.90;89.40;;;;;;4994895;28;21433;-80
2022/10/15 09:48:47;;;;;;;6.93;2.00;;;17.90;89.40;;;;;;5002884;28;20511;-80
2022/10/15 09:51:24;;;;;;;3.93;1.17;;;18.00;89.40;;;;;;4994919;28;20507;-80
2022/10/15 09:53:58;;;;;;;2.90;0.80;;;18.00;89.40;;;;;;5001406;28;20452;-81
2022/10/15 09:56:31;;;;;;;3.53;1.53;;;18.00;89.30;;;;;;5014525;28;20773;-80
2022/10/15 09:58:59;;;;;;;3.30;1.10;;;18.00;89.30;;;;;;4999736;28;20488;-79
2022/10/15 10:01:31;;;;;;;3.40;1.27;;;18.00;89.40;;;;;;4998904;28;20535;-80
2022/10/15 10:04:12;;;;;;;3.67;1.20;;;18.10;89.30;;;;;;5003352;28;20934;-82
2022/10/15 10:06:47;;;;;;;3.97;1.53;;;18.10;89.30;;;;;;4999124;28;20565;-81
2022/10/15 10:09:19;;;;;;;6.40;1.40;;;18.10;89.30;;;;;;5000465;28;20444;-79
2022/10/15 10:11:50;;;;;;;5.00;1.40;;;18.20;89.30;;;;;;5009497;28;20486;-81
2022/10/15 10:14:29;;;;;;;6.50;1.20;;;18.20;89.30;;;;;;4995380;28;20453;-79
2022/10/15 10:17:16;;;;;;;5.67;1.43;;;18.20;89.20;;;;;;5011295;28;20456;-81
2022/10/15 10:19:46;;;;;;;14.50;2.47;;;18.20;89.10;;;;;;5000846;28;21101;-80
2022/10/15 10:22:20;;;;;;;6.07;1.60;;;18.20;89.20;;;;;;5020912;28;20488;-80
2022/10/15 10:24:48;;;;;;;4.47;1.43;;;18.30;89.20;;;;;;5000836;28;21065;-81
2022/10/15 10:27:20;;;;;;;5.00;1.50;;;18.30;89.10;;;;;;4999458;28;20456;-81
2022/10/15 10:29:55;;;;;;;10.37;1.30;;;18.30;89.00;;;;;;4997105;28;21013;-79
2022/10/15 10:32:28;;;;;;;4.13;1.17;;;18.20;88.90;;;;;;4998398;28;20477;-79
2022/10/15 10:34:56;;;;;;;4.50;1.27;;;18.20;88.90;;;;;;5001736;28;20884;-81
2022/10/15 10:37:26;;;;;;;3.77;1.17;;;18.20;88.90;;;;;;5015925;28;20906;-80
2022/10/15 10:39:57;;;;;;;3.50;1.43;;;18.20;88.90;;;;;;4992701;28;21262;-78
2022/10/15 10:42:30;;;;;;;3.70;1.30;;;18.20;88.90;;;;;;4988335;28;21268;-81
2022/10/15 10:45:28;;;;;;;3.17;1.03;;;18.20;88.80;;;;;;5011113;28;20856;-78
2022/10/15 10:47:57;;;;;;;3.73;1.37;;;18.30;88.70;;;;;;4958559;28;20574;-79
2022/10/15 10:50:31;;;;;;;4.20;1.50;;;18.20;88.70;;;;;;5003418;28;20468;-80
2022/10/15 10:53:14;;;;;;;4.20;1.60;;;18.30;88.70;;;;;;4995074;28;20463;-80
2022/10/15 10:55:45;;;;;;;4.47;1.40;;;18.30;88.60;;;;;;5016524;28;20460;-78
2022/10/15 10:58:19;;;;;;;4.00;1.43;;;18.30;88.60;;;;;;5010254;28;20470;-79
2022/10/15 11:00:54;;;;;;;4.23;1.10;;;18.30;88.60;;;;;;5002600;28;20500;-81
2022/10/15 11:03:35;;;;;;;7.80;1.17;;;18.20;88.60;;;;;;5014734;28;21254;-80
2022/10/15 11:06:23;;;;;;;3.33;1.07;;;18.20;88.50;;;;;;4992321;28;20512;-80
2022/10/15 11:09:04;;;;;;;3.20;0.90;;;18.20;88.40;;;;;;5015815;28;20486;-80
2022/10/15 11:11:41;;;;;;;7.60;1.40;;;18.20;88.50;;;;;;4997843;28;20462;-80
2022/10/15 11:14:19;;;;;;;14.40;2.77;;;18.30;88.20;;;;;;4999287;28;20203;-80
2022/10/15 11:16:52;;;;;;;4.47;1.17;;;18.20;88.30;;;;;;4993757;28;20472;-80
2022/10/15 11:19:32;;;;;;;17.87;3.40;;;18.20;88.30;;;;;;4995717;28;20560;-80
2022/10/15 11:22:41;;;;;;;14.67;2.53;;;18.30;88.30;;;;;;4992355;28;20499;-78
2022/10/15 11:25:22;;;;;;;7.27;1.23;;;18.20;88.20;;;;;;4996896;28;20466;-79
2022/10/15 11:28:07;;;;;;;5.40;1.20;;;18.20;88.20;;;;;;4997770;28;20553;-80
2022/10/15 11:30:49;;;;;;;3.50;0.90;;;18.20;88.20;;;;;;5014169;28;20511;-79
2022/10/15 11:33:44;;;;;;;4.90;1.20;;;18.20;88.20;;;;;;5002353;28;20978;-79
2022/10/15 11:36:38;;;;;;;3.03;0.90;;;18.20;88.10;;;;;;5005471;28;20490;-79
2022/10/15 11:39:28;;;;;;;2.80;0.80;;;18.20;88.10;;;;;;5002362;28;20498;-79
2022/10/15 11:42:08;;;;;;;5.00;0.77;;;18.20;88.20;;;;;;5019598;28;20544;-79
2022/10/15 11:44:56;;;;;;;9.50;1.63;;;18.20;88.20;;;;;;5018570;28;20482;-81
2022/10/15 11:47:38;;;;;;;5.87;1.60;;;18.20;88.10;;;;;;5016675;28;20218;-80
2022/10/15 11:50:25;;;;;;;3.70;1.30;;;18.20;88.20;;;;;;4998707;28;20462;-79
2022/10/15 11:53:18;;;;;;;9.77;2.70;;;18.30;88.20;;;;;;4998245;28;20452;-80
2022/10/15 11:55:50;;;;;;;5.50;1.40;;;18.40;88.00;;;;;;4997007;28;20249;-80
2022/10/15 11:58:29;;;;;;;6.10;1.60;;;18.40;88.20;;;;;;4996921;28;20936;-80
2022/10/15 12:01:05;;;;;;;5.53;1.00;;;18.50;88.00;;;;;;5005254;28;20481;-80
2022/10/15 12:03:39;;;;;;;8.20;2.43;;;18.50;88.10;;;;;;5004304;28;20455;-80
2022/10/15 12:06:13;;;;;;;48.92;7.20;;;18.50;87.90;;;;;;5003293;28;20478;-80
2022/10/15 12:08:43;;;;;;;23.80;4.67;;;18.50;88.00;;;;;;5003451;28;20892;-81
2022/10/15 12:11:27;;;;;;;4.87;1.20;;;18.60;87.80;;;;;;4998834;28;20567;-80
2022/10/15 12:14:02;;;;;;;15.63;2.70;;;18.50;87.90;;;;;;5004054;28;20970;-80
2022/10/15 12:16:36;;;;;;;4.87;1.00;;;18.60;87.70;;;;;;5000737;28;20466;-78
2022/10/15 12:19:15;;;;;;;12.93;2.40;;;18.50;87.80;;;;;;5007183;28;20476;-79
2022/10/15 12:22:05;;;;;;;5.33;1.10;;;18.60;87.90;;;;;;5014609;28;20482;-80
2022/10/15 12:24:52;;;;;;;4.10;0.87;;;18.60;88.00;;;;;;5002143;28;20686;-80
2022/10/15 12:27:33;;;;;;;3.80;1.30;;;18.70;87.80;;;;;;5000627;28;20964;-81
2022/10/15 12:30:22;;;;;;;2.70;0.60;;;18.70;87.70;;;;;;5017643;28;20466;-80
2022/10/15 12:32:52;;;;;;;3.70;1.10;;;18.70;87.60;;;;;;4999542;28;20484;-80
2022/10/15 12:35:31;;;;;;;4.80;0.80;;;18.70;87.50;;;;;;4998651;28;21365;-79
2022/10/15 12:38:11;;;;;;;5.40;1.10;;;18.70;87.50;;;;;;5007253;28;20460;-80
2022/10/15 12:40:40;;;;;;;18.50;3.80;;;18.80;87.30;;;;;;5003480;28;20493;-78
2022/10/15 12:43:15;;;;;;;5.73;1.20;;;18.80;87.30;;;;;;5002218;28;20457;-79
2022/10/15 12:45:52;;;;;;;4.60;0.90;;;18.80;87.30;;;;;;4998113;28;20531;-78
2022/10/15 12:48:33;;;;;;;3.17;0.90;;;18.90;87.30;;;;;;5000419;28;20456;-79
2022/10/15 12:51:34;;;;;;;3.70;0.80;;;18.90;87.10;;;;;;5003595;28;20476;-80
2022/10/15 12:54:02;;;;;;;5.40;1.10;;;19.00;86.70;;;;;;4988906;28;20988;-79
2022/10/15 12:56:39;;;;;;;4.00;1.00;;;19.00;86.50;;;;;;5016651;28;20510;-80
2022/10/15 12:59:28;;;;;;;7.10;1.33;;;19.00;86.20;;;;;;5002844;28;20454;-79
2022/10/15 13:02:01;;;;;;;8.90;1.80;;;19.00;86.10;;;;;;4999559;28;20478;-80
2022/10/15 13:04:39;;;;;;;4.53;1.33;;;18.90;86.10;;;;;;5000873;28;20442;-80
2022/10/15 13:07:13;;;;;;;3.40;1.20;;;18.90;86.00;;;;;;5003750;28;20450;-79
2022/10/15 13:09:41;;;;;;;5.17;1.53;;;18.90;86.00;;;;;;5013144;28;20467;-80
2022/10/15 13:12:23;;;;;;;5.80;1.20;;;18.90;85.90;;;;;;5004305;28;20477;-79
2022/10/15 13:14:58;;;;;;;4.97;1.30;;;18.80;85.80;;;;;;5001435;28;20485;-79
2022/10/15 13:17:27;;;;;;;9.67;2.20;;;18.80;85.70;;;;;;4996350;28;20457;-80